Time;durP1;ratioP1;P1;durP2;ratioP2;P2;SDS_P1;SDS_P2;PMS_P1;PMS_P2;Temp;Humidity;BMP_temperature;BMP_pressure;BME280_temperature;BME280_humidity;BME280_pressure;Samples;Min_cycle;Max_cycle;Signal;HPM_P1;HPM_P2
2022/10/09 00:01:14;;;;;;;12.77;3.67;;;7.80;99.90;;;;;;5040739;28;20048;-68
2022/10/09 00:03:42;;;;;;;11.77;3.70;;;7.80;99.90;;;;;;5038071;28;20045;-68
2022/10/09 00:06:11;;;;;;;13.38;3.28;;;7.70;99.90;;;;;;5040191;28;20070;-68
2022/10/09 00:08:38;;;;;;;11.75;3.53;;;7.70;99.90;;;;;;5038364;28;20509;-68
2022/10/09 00:11:13;;;;;;;11.45;3.47;;;7.60;99.90;;;;;;5034587;28;20128;-67
2022/10/09 00:13:39;;;;;;;5.53;3.05;;;7.60;99.90;;;;;;5037167;28;20162;-68
2022/10/09 00:16:07;;;;;;;9.52;3.50;;;7.60;99.90;;;;;;5033380;28;20048;-67
2022/10/09 00:18:33;;;;;;;12.68;3.97;;;7.50;99.90;;;;;;5035375;28;20041;-68
2022/10/09 00:20:59;;;;;;;7.43;3.53;;;7.50;99.90;;;;;;5038113;28;20039;-67
2022/10/09 00:23:25;;;;;;;8.43;3.25;;;7.50;99.90;;;;;;5038845;28;20041;-68
2022/10/09 00:25:56;;;;;;;10.00;3.65;;;7.40;99.90;;;;;;5034075;28;20465;-68
2022/10/09 00:28:24;;;;;;;15.93;3.95;;;7.40;99.90;;;;;;5041887;28;20041;-68
2022/10/09 00:30:51;;;;;;;7.78;3.42;;;7.40;99.90;;;;;;5021638;28;20041;-67
2022/10/09 00:33:16;;;;;;;10.15;3.38;;;7.30;99.90;;;;;;5040439;28;20041;-67
2022/10/09 00:35:42;;;;;;;9.73;3.08;;;7.30;99.90;;;;;;5038077;28;20120;-67
2022/10/09 00:38:09;;;;;;;8.73;3.08;;;7.30;99.90;;;;;;5040668;28;20052;-67
2022/10/09 00:40:36;;;;;;;10.38;3.45;;;7.20;99.90;;;;;;5039783;28;20129;-65
2022/10/09 00:43:03;;;;;;;10.73;3.28;;;7.30;99.90;;;;;;5045392;28;20120;-68
2022/10/09 00:45:30;;;;;;;9.02;4.00;;;7.20;99.90;;;;;;5047172;28;20038;-68
2022/10/09 00:47:59;;;;;;;9.90;3.92;;;7.20;99.90;;;;;;5037851;28;20041;-68
2022/10/09 00:50:39;;;;;;;6.75;3.13;;;7.10;99.90;;;;;;5044669;28;20444;-68
2022/10/09 00:53:04;;;;;;;6.65;3.53;;;7.10;99.90;;;;;;5045665;28;20056;-68
2022/10/09 00:55:33;;;;;;;7.35;3.55;;;7.10;99.90;;;;;;5039879;28;20037;-68
2022/10/09 00:58:00;;;;;;;6.88;3.15;;;7.00;99.90;;;;;;5037097;28;20512;-65
2022/10/09 01:00:26;;;;;;;9.00;3.50;;;7.00;99.90;;;;;;5043114;28;20091;-66
2022/10/09 01:02:52;;;;;;;10.57;3.58;;;7.00;99.90;;;;;;5040295;28;20418;-67
2022/10/09 01:05:24;;;;;;;10.68;3.50;;;7.00;99.90;;;;;;5040803;28;20559;-67
2022/10/09 01:08:26;;;;;;;12.30;3.85;;;7.00;99.90;;;;;;5038505;28;20120;-66
2022/10/09 01:10:54;;;;;;;9.20;4.18;;;7.00;99.90;;;;;;5028728;28;20128;-67
2022/10/09 01:13:34;;;;;;;9.00;4.05;;;6.90;99.90;;;;;;5039397;28;20037;-67
2022/10/09 01:16:04;;;;;;;10.25;3.75;;;6.90;99.90;;;;;;5037241;28;20053;-66
2022/10/09 01:18:30;;;;;;;8.45;3.88;;;6.80;99.90;;;;;;5042575;28;20096;-67
2022/10/09 01:21:19;;;;;;;8.18;3.75;;;6.80;99.90;;;;;;5043778;28;20048;-67
2022/10/09 01:23:54;;;;;;;8.73;4.20;;;6.80;99.90;;;;;;5038682;28;20029;-67
2022/10/09 01:26:19;;;;;;;;;;;6.80;99.90;;;;;;5041063;28;20485;-66
2022/10/09 01:28:49;;;;;;;7.60;3.55;;;6.70;99.90;;;;;;5040498;28;19927;-67
2022/10/09 01:31:16;;;;;;;7.88;4.10;;;6.70;99.90;;;;;;5041181;28;20049;-66
2022/10/09 01:33:44;;;;;;;10.70;4.07;;;6.70;99.90;;;;;;5038305;28;20086;-66
2022/10/09 01:36:12;;;;;;;10.90;3.55;;;6.60;99.90;;;;;;5037881;28;20130;-66
2022/10/09 01:38:40;;;;;;;9.15;3.90;;;6.60;99.90;;;;;;5040282;28;20613;-67
2022/10/09 01:41:07;;;;;;;9.73;4.60;;;6.60;99.90;;;;;;5042388;28;20048;-67
2022/10/09 01:43:33;;;;;;;13.27;4.60;;;6.50;99.90;;;;;;5035948;28;20084;-67
2022/10/09 01:46:44;;;;;;;8.18;4.70;;;6.60;99.90;;;;;;5041923;28;20582;-66
2022/10/09 01:49:28;;;;;;;11.68;5.18;;;6.50;99.90;;;;;;5039404;28;20084;-66
2022/10/09 01:52:20;;;;;;;7.33;4.53;;;6.50;99.90;;;;;;5038152;28;20071;-67
2022/10/09 01:55:04;;;;;;;10.95;5.55;;;6.50;99.90;;;;;;5041608;28;20433;-66
2022/10/09 01:57:58;;;;;;;9.50;5.00;;;6.40;99.90;;;;;;5043406;28;20078;-67
2022/10/09 02:00:26;;;;;;;13.37;6.57;;;6.40;99.90;;;;;;5036792;28;20133;-66
2022/10/09 02:02:53;;;;;;;10.40;5.75;;;6.30;99.90;;;;;;5037507;28;20491;-66
2022/10/09 02:05:24;;;;;;;15.00;5.85;;;6.30;99.90;;;;;;5036926;28;20118;-66
2022/10/09 02:07:50;;;;;;;10.02;5.32;;;6.30;99.90;;;;;;5045011;28;20099;-67
2022/10/09 02:10:19;;;;;;;10.18;5.10;;;6.30;99.90;;;;;;5040623;28;20038;-66
2022/10/09 02:12:55;;;;;;;13.88;5.38;;;6.30;99.90;;;;;;5035005;28;20120;-67
2022/10/09 02:15:26;;;;;;;12.88;5.50;;;6.30;99.90;;;;;;5037445;28;20099;-67
2022/10/09 02:17:57;;;;;;;9.05;5.13;;;6.30;99.90;;;;;;5039908;28;20517;-66
2022/10/09 02:20:31;;;;;;;11.90;4.95;;;6.20;99.90;;;;;;5036889;28;20099;-66
2022/10/09 02:23:00;;;;;;;13.13;5.13;;;6.30;99.90;;;;;;5045372;28;20600;-66
2022/10/09 02:25:27;;;;;;;10.00;5.45;;;6.20;99.90;;;;;;5039163;28;20044;-67
2022/10/09 02:27:53;;;;;;;8.95;4.95;;;6.20;99.90;;;;;;5040675;28;20106;-67
2022/10/09 02:30:20;;;;;;;12.48;5.10;;;6.20;99.90;;;;;;5027649;28;20049;-66
2022/10/09 02:32:52;;;;;;;15.50;7.32;;;6.20;99.90;;;;;;5034214;28;20299;-67
2022/10/09 02:35:18;;;;;;;12.13;6.65;;;6.10;99.90;;;;;;5045912;28;20033;-66
2022/10/09 02:37:43;;;;;;;11.80;5.10;;;6.10;99.90;;;;;;5041566;28;20047;-66
2022/10/09 02:40:09;;;;;;;12.02;4.93;;;6.20;99.90;;;;;;5033581;28;20045;-66
2022/10/09 02:42:35;;;;;;;13.25;5.03;;;6.10;99.90;;;;;;5039044;28;20131;-67
2022/10/09 02:45:01;;;;;;;10.18;5.43;;;6.10;99.90;;;;;;5047434;28;20435;-66
2022/10/09 02:47:26;;;;;;;8.38;5.10;;;6.00;99.90;;;;;;5038212;28;20033;-66
2022/10/09 02:49:52;;;;;;;9.98;5.57;;;6.00;99.90;;;;;;5040307;28;20478;-66
2022/10/09 02:52:18;;;;;;;9.43;5.28;;;6.10;99.90;;;;;;5036928;28;20086;-67
2022/10/09 02:54:43;;;;;;;12.75;6.00;;;6.10;99.90;;;;;;5040398;28;20102;-67
2022/10/09 02:57:09;;;;;;;8.30;4.88;;;6.00;99.90;;;;;;5039357;28;20378;-69
2022/10/09 02:59:34;;;;;;;9.82;5.50;;;6.00;99.90;;;;;;5036893;28;20510;-69
2022/10/09 03:02:00;;;;;;;6.68;4.47;;;6.00;99.90;;;;;;5059709;28;20060;-69
2022/10/09 03:04:26;;;;;;;11.75;5.13;;;5.90;99.90;;;;;;5048470;28;20050;-69
2022/10/09 03:06:51;;;;;;;7.15;4.40;;;6.00;99.90;;;;;;5043683;28;20049;-69
2022/10/09 03:09:17;;;;;;;11.68;5.10;;;5.90;99.90;;;;;;5044984;28;20057;-69
2022/10/09 03:11:43;;;;;;;8.75;4.95;;;5.90;99.90;;;;;;5040623;28;20044;-69
2022/10/09 03:14:09;;;;;;;9.52;4.60;;;5.90;99.90;;;;;;5043799;28;20045;-69
2022/10/09 03:16:34;;;;;;;10.55;4.63;;;5.90;99.90;;;;;;5043970;28;20045;-69
2022/10/09 03:19:00;;;;;;;7.95;5.57;;;5.80;99.90;;;;;;5040343;28;20377;-69
2022/10/09 03:21:27;;;;;;;7.95;4.25;;;5.90;99.90;;;;;;5041847;28;20431;-69
2022/10/09 03:23:54;;;;;;;11.27;5.10;;;5.80;99.90;;;;;;5031995;28;20079;-69
2022/10/09 03:26:23;;;;;;;9.98;4.60;;;5.80;99.90;;;;;;5042644;28;20039;-69
2022/10/09 03:28:50;;;;;;;7.57;4.47;;;5.80;99.90;;;;;;5053581;28;20032;-69
2022/10/09 03:31:17;;;;;;;7.07;4.32;;;5.80;99.90;;;;;;5045890;28;20530;-69
2022/10/09 03:33:43;;;;;;;11.38;5.18;;;5.80;99.90;;;;;;5044556;28;20038;-69
2022/10/09 03:36:10;;;;;;;14.07;5.32;;;5.80;99.90;;;;;;5042532;28;20482;-69
2022/10/09 03:38:35;;;;;;;10.00;4.78;;;5.80;99.90;;;;;;5039967;28;20076;-69
2022/10/09 03:41:03;;;;;;;9.23;5.25;;;5.70;99.90;;;;;;5042835;28;20066;-69
2022/10/09 03:43:29;;;;;;;9.35;4.70;;;5.80;99.90;;;;;;5042646;28;20045;-69
2022/10/09 03:45:55;;;;;;;7.50;4.40;;;5.80;99.90;;;;;;5037125;28;20112;-70
2022/10/09 03:48:22;;;;;;;12.27;5.00;;;5.70;99.90;;;;;;5035450;28;20485;-69
2022/10/09 03:50:47;;;;;;;9.45;4.45;;;5.70;99.90;;;;;;5041310;28;20080;-69
2022/10/09 03:53:14;;;;;;;7.85;4.20;;;5.70;99.90;;;;;;5041485;28;20156;-69
2022/10/09 03:55:40;;;;;;;5.53;3.97;;;5.60;99.90;;;;;;5040570;28;20661;-70
2022/10/09 03:58:06;;;;;;;12.18;4.65;;;5.60;99.90;;;;;;5038569;28;20445;-70
2022/10/09 04:00:32;;;;;;;9.18;4.60;;;5.60;99.90;;;;;;5043068;28;20033;-69
2022/10/09 04:02:58;;;;;;;12.05;5.10;;;5.60;99.90;;;;;;5036965;28;20053;-69
2022/10/09 04:05:23;;;;;;;9.68;4.80;;;5.60;99.90;;;;;;5040947;28;20139;-69
2022/10/09 04:07:49;;;;;;;7.13;4.43;;;5.60;99.90;;;;;;5025603;28;20045;-69
2022/10/09 04:10:15;;;;;;;14.50;4.97;;;5.60;99.90;;;;;;5041822;28;20037;-70
2022/10/09 04:12:41;;;;;;;7.78;4.80;;;5.50;99.90;;;;;;5043760;28;20041;-69
2022/10/09 04:15:07;;;;;;;5.85;4.10;;;5.50;99.90;;;;;;5046476;28;20067;-70
2022/10/09 04:17:33;;;;;;;11.02;5.18;;;5.50;99.90;;;;;;5038468;28;20046;-70
2022/10/09 04:19:59;;;;;;;8.52;4.60;;;5.50;99.90;;;;;;5036201;28;20030;-70
2022/10/09 04:22:24;;;;;;;7.82;3.97;;;5.40;99.90;;;;;;5040122;28;20072;-70
2022/10/09 04:24:50;;;;;;;7.72;3.95;;;5.50;99.90;;;;;;5035020;28;20081;-70
2022/10/09 04:27:16;;;;;;;10.73;4.57;;;5.40;99.90;;;;;;5039754;28;20090;-70
2022/10/09 04:29:41;;;;;;;8.48;4.75;;;5.40;99.90;;;;;;5043331;28;20037;-70
2022/10/09 04:32:07;;;;;;;10.73;4.85;;;5.40;99.90;;;;;;5040494;28;20049;-70
2022/10/09 04:34:33;;;;;;;10.38;4.57;;;5.40;99.90;;;;;;5037136;28;20037;-70
2022/10/09 04:36:58;;;;;;;14.10;5.45;;;5.30;99.90;;;;;;5041849;28;20041;-70
2022/10/09 04:39:24;;;;;;;8.13;4.28;;;5.30;99.90;;;;;;5042311;28;20416;-70
2022/10/09 04:41:50;;;;;;;8.38;4.50;;;5.30;99.90;;;;;;5041771;28;20474;-70
2022/10/09 04:44:15;;;;;;;7.07;4.18;;;5.20;99.90;;;;;;5039444;28;20621;-70
2022/10/09 04:46:41;;;;;;;5.00;3.90;;;5.20;99.90;;;;;;5045337;28;20068;-70
2022/10/09 04:49:11;;;;;;;9.32;4.43;;;5.20;99.90;;;;;;5042370;28;20105;-70
2022/10/09 04:51:37;;;;;;;9.65;4.35;;;5.20;99.90;;;;;;5044937;28;20049;-70
2022/10/09 04:54:02;;;;;;;7.18;3.88;;;5.20;99.90;;;;;;5038663;28;20052;-70
2022/10/09 04:56:30;;;;;;;6.82;3.85;;;5.20;99.90;;;;;;5037715;28;20051;-70
2022/10/09 04:58:56;;;;;;;7.05;4.72;;;5.20;99.90;;;;;;5038656;28;20053;-70
2022/10/09 05:01:25;;;;;;;8.25;4.40;;;5.10;99.90;;;;;;5040665;28;20064;-70
2022/10/09 05:03:51;;;;;;;7.35;4.57;;;5.20;99.90;;;;;;5039519;28;20127;-72
2022/10/09 05:06:18;;;;;;;10.45;4.38;;;5.20;99.90;;;;;;5037783;28;20044;-71
2022/10/09 05:08:45;;;;;;;7.63;4.40;;;5.10;99.90;;;;;;5037942;28;20373;-69
2022/10/09 05:11:13;;;;;;;8.30;4.65;;;5.10;99.90;;;;;;5022606;28;20076;-69
2022/10/09 05:13:43;;;;;;;8.30;4.90;;;5.10;99.90;;;;;;5039533;28;20072;-70
2022/10/09 05:16:12;;;;;;;9.25;4.88;;;5.10;99.90;;;;;;5038868;28;20049;-70
2022/10/09 05:18:50;;;;;;;11.00;5.03;;;5.10;99.90;;;;;;5023202;28;20054;-70
2022/10/09 05:21:16;;;;;;;11.38;5.40;;;5.10;99.90;;;;;;5046019;28;20055;-69
2022/10/09 05:23:46;;;;;;;9.95;5.18;;;5.10;99.90;;;;;;5042829;28;20514;-69
2022/10/09 05:26:18;;;;;;;7.57;5.40;;;5.10;99.90;;;;;;5045336;28;20413;-71
2022/10/09 05:28:44;;;;;;;7.45;5.07;;;5.10;99.90;;;;;;5049641;28;20063;-71
2022/10/09 05:31:19;;;;;;;9.15;5.20;;;5.10;99.90;;;;;;5048548;28;20051;-71
2022/10/09 05:33:45;;;;;;;;;;;5.10;99.90;;;;;;5029199;28;20536;-71
2022/10/09 05:36:10;;;;;;;6.85;4.15;;;5.10;99.90;;;;;;5049505;28;19925;-71
2022/10/09 05:38:36;;;;;;;8.48;4.28;;;5.00;99.90;;;;;;5028528;28;20114;-71
2022/10/09 05:41:04;;;;;;;12.68;5.15;;;5.10;99.90;;;;;;5047108;28;20049;-71
2022/10/09 05:43:33;;;;;;;6.20;4.70;;;5.00;99.90;;;;;;5043453;28;20095;-70
2022/10/09 05:46:17;;;;;;;8.20;4.18;;;5.00;99.90;;;;;;5044151;28;20045;-71
2022/10/09 05:48:48;;;;;;;7.82;4.15;;;5.00;99.90;;;;;;5039220;28;20770;-70
2022/10/09 05:51:23;;;;;;;10.07;5.00;;;5.00;99.90;;;;;;5042297;28;20041;-71
2022/10/09 05:53:50;;;;;;;11.98;5.35;;;5.00;99.90;;;;;;5040264;28;20049;-71
2022/10/09 05:56:21;;;;;;;8.00;5.47;;;5.00;99.90;;;;;;5046090;28;20497;-71
2022/10/09 05:58:53;;;;;;;7.50;4.95;;;5.00;99.90;;;;;;5047340;28;20115;-71
2022/10/09 06:01:19;;;;;;;9.10;5.95;;;5.00;99.90;;;;;;5043059;28;20501;-70
2022/10/09 06:03:51;;;;;;;12.10;5.97;;;5.00;99.90;;;;;;5041724;28;20049;-71
2022/10/09 06:06:18;;;;;;;10.63;5.35;;;5.00;99.90;;;;;;5045265;28;20041;-71
2022/10/09 06:08:46;;;;;;;11.45;6.65;;;5.10;99.90;;;;;;5041299;28;20053;-70
2022/10/09 06:11:18;;;;;;;11.25;5.60;;;5.10;99.90;;;;;;5041414;28;20046;-70
2022/10/09 06:13:44;;;;;;;9.82;6.50;;;5.10;99.90;;;;;;5045458;28;20124;-70
2022/10/09 06:16:12;;;;;;;10.95;6.43;;;5.10;99.90;;;;;;5046782;28;20064;-70
2022/10/09 06:18:40;;;;;;;10.90;5.57;;;5.20;99.90;;;;;;5040641;28;20044;-70
2022/10/09 06:21:06;;;;;;;10.70;6.57;;;5.20;99.90;;;;;;5041685;28;20055;-69
2022/10/09 06:23:33;;;;;;;10.82;6.60;;;5.20;99.90;;;;;;5027581;28;20037;-69
2022/10/09 06:26:04;;;;;;;9.32;6.47;;;5.20;99.90;;;;;;5030407;28;20045;-69
2022/10/09 06:28:31;;;;;;;13.80;7.28;;;5.30;99.90;;;;;;5048678;28;20087;-69
2022/10/09 06:31:08;;;;;;;16.27;7.35;;;5.30;99.90;;;;;;5043582;28;20132;-68
2022/10/09 06:33:36;;;;;;;12.98;7.93;;;5.40;99.90;;;;;;5037734;28;20071;-68
2022/10/09 06:36:07;;;;;;;10.98;7.38;;;5.40;99.90;;;;;;5041678;28;20055;-69
2022/10/09 06:38:34;;;;;;;15.40;8.10;;;5.60;99.90;;;;;;5043260;28;20773;-68
2022/10/09 06:41:08;;;;;;;17.52;8.85;;;5.60;99.90;;;;;;5041913;28;20033;-69
2022/10/09 06:43:34;;;;;;;12.20;6.78;;;5.70;99.90;;;;;;5056262;28;20054;-69
2022/10/09 06:46:11;;;;;;;15.02;8.68;;;5.80;99.90;;;;;;5041287;28;20053;-69
2022/10/09 06:48:38;;;;;;;13.70;8.52;;;5.90;99.90;;;;;;5037872;28;20041;-69
2022/10/09 06:51:10;;;;;;;12.75;7.95;;;6.00;99.90;;;;;;5042789;28;20049;-70
2022/10/09 06:53:41;;;;;;;16.75;8.55;;;6.10;99.90;;;;;;5044665;28;20045;-68
2022/10/09 06:56:09;;;;;;;12.40;8.63;;;6.30;99.90;;;;;;5044804;28;20067;-69
2022/10/09 06:58:36;;;;;;;13.10;8.68;;;6.40;99.90;;;;;;5042936;28;20460;-69
2022/10/09 07:01:08;;;;;;;14.93;9.05;;;6.50;99.90;;;;;;5042276;28;20054;-69
2022/10/09 07:03:35;;;;;;;13.80;9.40;;;6.70;99.90;;;;;;5039154;28;20048;-70
2022/10/09 07:06:15;;;;;;;17.83;9.18;;;6.80;99.90;;;;;;5043701;28;20037;-70
2022/10/09 07:08:44;;;;;;;13.60;8.77;;;7.00;99.90;;;;;;5043504;28;20049;-70
2022/10/09 07:11:15;;;;;;;17.58;8.73;;;7.20;99.90;;;;;;5038376;28;20045;-70
2022/10/09 07:13:42;;;;;;;16.23;10.10;;;7.40;99.90;;;;;;5041663;28;20123;-70
2022/10/09 07:16:10;;;;;;;15.15;9.05;;;7.80;99.90;;;;;;5041344;28;20056;-69
2022/10/09 07:18:36;;;;;;;18.80;9.35;;;8.30;99.90;;;;;;5041914;28;20051;-70
2022/10/09 07:21:04;;;;;;;15.80;9.10;;;8.80;99.90;;;;;;5046313;28;20048;-70
2022/10/09 07:23:31;;;;;;;15.75;8.82;;;9.60;99.90;;;;;;5049074;28;20044;-70
2022/10/09 07:25:57;;;;;;;13.90;7.22;;;10.40;99.90;;;;;;5038178;28;20087;-70
2022/10/09 07:28:25;;;;;;;7.32;5.75;;;11.20;99.90;;;;;;5049230;28;20167;-70
2022/10/09 07:30:51;;;;;;;9.00;5.22;;;12.00;99.90;;;;;;5046276;28;20049;-70
2022/10/09 07:33:17;;;;;;;9.80;4.90;;;12.80;99.90;;;;;;5041708;28;20107;-70
2022/10/09 07:35:42;;;;;;;7.47;4.70;;;13.40;99.90;;;;;;5036999;28;20057;-70
2022/10/09 07:38:08;;;;;;;8.27;4.28;;;13.90;99.90;;;;;;5037754;28;20061;-70
2022/10/09 07:40:35;;;;;;;8.38;4.50;;;14.30;99.90;;;;;;5020055;28;20093;-71
2022/10/09 07:43:01;;;;;;;5.68;3.83;;;14.70;99.90;;;;;;5038036;28;20054;-71
2022/10/09 07:45:27;;;;;;;7.72;3.90;;;15.20;99.90;;;;;;5038333;28;20176;-71
2022/10/09 07:47:52;;;;;;;6.70;3.97;;;15.50;99.90;;;;;;5021694;28;20052;-71
2022/10/09 07:50:18;;;;;;;5.72;3.60;;;15.90;99.90;;;;;;5044319;28;20041;-71
2022/10/09 07:52:44;;;;;;;6.43;3.63;;;16.40;99.90;;;;;;5047655;28;20116;-71
2022/10/09 07:55:09;;;;;;;4.30;3.15;;;16.80;99.90;;;;;;5042312;28;20059;-71
2022/10/09 07:57:35;;;;;;;7.10;3.63;;;17.10;99.90;;;;;;5039774;28;20049;-71
2022/10/09 08:00:01;;;;;;;8.13;3.55;;;17.50;99.90;;;;;;5044120;28;20100;-72
2022/10/09 08:02:26;;;;;;;6.32;3.47;;;17.80;99.90;;;;;;5047082;28;20492;-72
2022/10/09 08:04:52;;;;;;;6.03;2.88;;;18.10;99.90;;;;;;5050354;28;20489;-72
2022/10/09 08:07:18;;;;;;;7.53;3.22;;;18.40;99.90;;;;;;5044728;28;20042;-72
2022/10/09 08:09:43;;;;;;;6.93;3.58;;;18.50;99.90;;;;;;5033976;28;20072;-72
2022/10/09 08:12:09;;;;;;;6.00;3.20;;;18.70;99.90;;;;;;5035320;28;20061;-72
2022/10/09 08:14:34;;;;;;;6.07;3.03;;;19.00;99.50;;;;;;5043885;28;20045;-73
2022/10/09 08:17:00;;;;;;;5.25;2.92;;;19.40;98.40;;;;;;5043172;28;20053;-72
2022/10/09 08:19:26;;;;;;;6.00;2.88;;;19.60;96.70;;;;;;5050097;28;20044;-72
2022/10/09 08:21:51;;;;;;;9.93;5.93;;;20.00;95.30;;;;;;5042817;28;22130;-72
2022/10/09 08:24:17;;;;;;;8.63;3.65;;;20.10;94.30;;;;;;5030585;28;20069;-72
2022/10/09 08:26:43;;;;;;;6.82;3.08;;;20.10;93.50;;;;;;5043893;28;20068;-71
2022/10/09 08:29:12;;;;;;;6.47;3.35;;;20.20;92.40;;;;;;5046781;28;20118;-72
2022/10/09 08:31:38;;;;;;;6.43;2.88;;;20.00;91.50;;;;;;5044765;28;20052;-72
2022/10/09 08:34:04;;;;;;;8.05;2.90;;;20.10;91.90;;;;;;5043214;28;20068;-72
2022/10/09 08:36:31;;;;;;;5.38;3.05;;;20.20;91.50;;;;;;5027591;28;20041;-72
2022/10/09 08:38:57;;;;;;;6.40;3.22;;;20.30;90.50;;;;;;5049557;28;20056;-72
2022/10/09 08:41:28;;;;;;;5.00;3.30;;;20.60;90.90;;;;;;5044018;28;20041;-72
2022/10/09 08:44:01;;;;;;;6.45;3.30;;;21.10;89.70;;;;;;5052533;28;20041;-73
2022/10/09 08:46:52;;;;;;;7.20;3.23;;;21.50;87.80;;;;;;5056252;28;20025;-72
2022/10/09 08:49:47;;;;;;;6.32;2.90;;;22.00;83.10;;;;;;5066012;28;20033;-72
2022/10/09 08:52:17;;;;;;;7.20;3.55;;;21.80;78.20;;;;;;5017144;28;20068;-72
2022/10/09 08:54:43;;;;;;;6.63;3.40;;;21.80;82.70;;;;;;5030158;28;20064;-72
2022/10/09 08:57:12;;;;;;;8.32;3.63;;;21.80;80.50;;;;;;5047833;28;20041;-72
2022/10/09 08:59:38;;;;;;;7.20;3.35;;;22.30;80.20;;;;;;5050131;28;20052;-71
2022/10/09 09:02:32;;;;;;;6.43;3.38;;;22.60;78.00;;;;;;5046577;28;20037;-72
2022/10/09 09:05:13;;;;;;;7.25;3.42;;;22.60;75.30;;;;;;5052280;28;20045;-72
2022/10/09 09:08:19;;;;;;;25.95;21.90;;;22.50;74.10;;;;;;5054958;28;20068;-72
2022/10/09 09:11:06;;;;;;;8.65;3.85;;;22.40;76.20;;;;;;5046528;28;20064;-72
2022/10/09 09:13:43;;;;;;;11.85;6.90;;;22.70;76.00;;;;;;5052027;28;20480;-71
2022/10/09 09:16:30;;;;;;;6.00;3.00;;;23.10;74.20;;;;;;5052163;28;20090;-72
2022/10/09 09:19:19;;;;;;;9.25;3.13;;;23.50;74.30;;;;;;5054126;28;20041;-72
2022/10/09 09:21:50;;;;;;;8.20;4.82;;;24.00;71.00;;;;;;5050664;28;20044;-72
2022/10/09 09:24:47;;;;;;;12.43;7.35;;;24.20;69.40;;;;;;5053346;28;20124;-72
2022/10/09 09:27:30;;;;;;;7.13;2.53;;;24.20;68.00;;;;;;5047259;28;20113;-71
2022/10/09 09:30:05;;;;;;;7.55;2.72;;;24.00;68.30;;;;;;5052162;28;20068;-72
2022/10/09 09:32:32;;;;;;;7.53;2.63;;;24.10;68.40;;;;;;5054666;28;20080;-72
2022/10/09 09:35:30;;;;;;;9.40;2.97;;;24.30;67.40;;;;;;5055719;28;20045;-72
2022/10/09 09:37:56;;;;;;;9.50;3.13;;;24.70;66.70;;;;;;5051542;28;20053;-71
2022/10/09 09:40:28;;;;;;;8.45;2.42;;;24.70;66.60;;;;;;5049513;28;20049;-72
2022/10/09 09:42:55;;;;;;;6.35;2.38;;;24.70;65.00;;;;;;5032156;28;20064;-72
2022/10/09 09:45:24;;;;;;;5.03;1.80;;;24.80;64.50;;;;;;5054921;28;20051;-72
2022/10/09 09:48:18;;;;;;;5.78;1.80;;;24.90;64.40;;;;;;5051475;28;20044;-71
2022/10/09 09:50:44;;;;;;;8.88;2.35;;;25.10;65.20;;;;;;5021812;28;20045;-72
2022/10/09 09:53:25;;;;;;;8.05;1.95;;;25.40;63.30;;;;;;5050430;28;20048;-72
2022/10/09 09:55:52;;;;;;;6.93;2.22;;;25.50;62.20;;;;;;5051686;28;20247;-72
2022/10/09 09:58:19;;;;;;;9.80;2.20;;;25.60;62.90;;;;;;5049586;28;20053;-71
2022/10/09 10:01:00;;;;;;;5.68;1.85;;;25.60;62.00;;;;;;5048364;28;20096;-72
2022/10/09 10:03:26;;;;;;;7.25;2.20;;;25.70;61.10;;;;;;5047233;28;20060;-72
2022/10/09 10:05:52;;;;;;;4.95;1.65;;;25.80;62.00;;;;;;5043857;28;20040;-71
2022/10/09 10:08:28;;;;;;;7.55;2.38;;;25.90;61.40;;;;;;5044540;28;20045;-71
2022/10/09 10:10:57;;;;;;;6.78;2.38;;;25.80;59.40;;;;;;5044633;28;20029;-71
2022/10/09 10:13:36;;;;;;;6.18;2.15;;;25.80;60.20;;;;;;5044229;28;20049;-71
2022/10/09 10:16:03;;;;;;;5.95;1.88;;;25.60;58.00;;;;;;5045547;28;20095;-71
2022/10/09 10:18:35;;;;;;;7.28;1.77;;;25.50;59.90;;;;;;5046681;28;20037;-71
2022/10/09 10:21:10;;;;;;;5.95;1.90;;;25.60;58.60;;;;;;5033425;28;20041;-71
2022/10/09 10:24:04;;;;;;;8.98;1.98;;;25.70;59.20;;;;;;5045934;28;20063;-71
2022/10/09 10:26:42;;;;;;;7.60;1.97;;;25.80;56.70;;;;;;5045842;28;20036;-71
2022/10/09 10:29:16;;;;;;;7.40;1.85;;;25.70;58.10;;;;;;5046965;28;20323;-71
2022/10/09 10:32:15;;;;;;;5.35;2.13;;;25.60;57.30;;;;;;5048720;28;20344;-71
2022/10/09 10:35:03;;;;;;;6.97;1.73;;;25.60;57.30;;;;;;5045902;28;20561;-71
2022/10/09 10:37:44;;;;;;;8.57;2.00;;;25.50;57.30;;;;;;5040942;28;20045;-71
2022/10/09 10:40:26;;;;;;;9.45;2.08;;;25.50;58.10;;;;;;5042118;28;20697;-71
2022/10/09 10:43:29;;;;;;;6.70;2.97;;;25.40;58.30;;;;;;5044630;28;20516;-70
2022/10/09 10:46:02;;;;;;;8.93;2.45;;;25.60;57.20;;;;;;5040523;28;20041;-71
2022/10/09 10:48:42;;;;;;;7.80;2.80;;;25.60;58.00;;;;;;5048919;28;20041;-71
2022/10/09 10:51:30;;;;;;;7.85;2.47;;;25.60;57.40;;;;;;5042194;28;20044;-71
2022/10/09 10:54:04;;;;;;;6.25;2.10;;;25.50;54.50;;;;;;5040803;28;20110;-71
2022/10/09 10:56:52;;;;;;;7.50;2.67;;;25.40;55.40;;;;;;5036322;28;20138;-70
2022/10/09 10:59:39;;;;;;;8.85;2.80;;;25.20;55.80;;;;;;5044635;28;20508;-70
2022/10/09 11:02:57;;;;;;;7.80;2.40;;;24.90;56.20;;;;;;5042997;28;20036;-71
2022/10/09 11:05:25;;;;;;;9.40;2.50;;;24.90;54.60;;;;;;5010290;28;20049;-70
2022/10/09 11:08:10;;;;;;;8.38;2.53;;;24.60;56.90;;;;;;5039120;28;20099;-70
2022/10/09 11:10:39;;;;;;;8.25;2.45;;;24.60;56.10;;;;;;5043451;28;20044;-70
2022/10/09 11:13:37;;;;;;;7.93;3.17;;;24.80;55.70;;;;;;5040407;28;20103;-71
2022/10/09 11:16:32;;;;;;;5.97;2.63;;;25.10;55.20;;;;;;5038159;28;20037;-70
2022/10/09 11:19:31;;;;;;;6.63;2.72;;;25.00;55.30;;;;;;5042005;28;20334;-70
2022/10/09 11:22:32;;;;;;;6.97;2.63;;;25.10;55.70;;;;;;4987107;28;20493;-70
2022/10/09 11:25:18;;;;;;;6.43;2.30;;;25.30;55.90;;;;;;5016056;28;20061;-70
2022/10/09 11:27:56;;;;;;;6.40;2.00;;;25.70;55.20;;;;;;5045453;28;20115;-70
2022/10/09 11:30:25;;;;;;;9.20;2.15;;;26.00;53.50;;;;;;5046358;28;20033;-70
2022/10/09 11:33:01;;;;;;;6.97;2.25;;;26.10;53.80;;;;;;5040947;28;20043;-70
2022/10/09 11:35:50;;;;;;;9.00;2.90;;;26.00;51.60;;;;;;5043879;28;20041;-70
2022/10/09 11:38:25;;;;;;;8.55;2.45;;;25.70;52.60;;;;;;5044673;28;20040;-70
2022/10/09 11:40:51;;;;;;;9.88;2.92;;;25.20;51.30;;;;;;5043459;28;20036;-70
2022/10/09 11:43:26;;;;;;;9.23;2.78;;;25.00;51.80;;;;;;5043064;28;20033;-69
2022/10/09 11:46:03;;;;;;;7.63;2.80;;;24.80;52.80;;;;;;5039581;28;20038;-71
2022/10/09 11:48:51;;;;;;;6.95;2.35;;;24.90;53.30;;;;;;5046672;28;20045;-71
2022/10/09 11:51:32;;;;;;;6.85;2.53;;;25.00;53.50;;;;;;5042379;28;20481;-70
2022/10/09 11:53:59;;;;;;;8.52;2.80;;;24.60;52.80;;;;;;5044914;28;20123;-70
2022/10/09 11:56:27;;;;;;;6.00;2.78;;;24.40;53.90;;;;;;5025452;28;20067;-70
2022/10/09 11:58:58;;;;;;;6.13;3.28;;;24.20;54.20;;;;;;5043598;28;20134;-70
2022/10/09 12:01:30;;;;;;;6.70;2.90;;;24.20;52.40;;;;;;5044676;28;20053;-70
2022/10/09 12:04:11;;;;;;;6.93;2.65;;;24.10;54.10;;;;;;5043905;28;20041;-70
2022/10/09 12:07:00;;;;;;;5.50;2.50;;;24.00;54.60;;;;;;5047273;28;20036;-70
2022/10/09 12:09:36;;;;;;;9.38;3.13;;;23.90;53.50;;;;;;5045761;28;20550;-70
2022/10/09 12:12:06;;;;;;;7.97;3.42;;;23.90;54.10;;;;;;5041446;28;20330;-70
2022/10/09 12:14:33;;;;;;;8.75;2.70;;;23.80;54.60;;;;;;5042708;28;20049;-70
2022/10/09 12:17:00;;;;;;;8.13;3.03;;;23.90;55.20;;;;;;5039380;28;20128;-70
2022/10/09 12:19:36;;;;;;;9.13;3.28;;;24.30;54.80;;;;;;5040978;28;20052;-70
2022/10/09 12:22:14;;;;;;;9.88;3.60;;;24.70;53.00;;;;;;5036700;28;20056;-70
2022/10/09 12:24:52;;;;;;;8.27;3.08;;;24.80;51.00;;;;;;5042376;28;20568;-70
2022/10/09 12:27:27;;;;;;;7.13;3.05;;;24.40;51.60;;;;;;5043127;28;20049;-69
2022/10/09 12:29:57;;;;;;;9.07;2.90;;;24.00;50.50;;;;;;5040659;28;20043;-70
2022/10/09 12:32:32;;;;;;;12.27;3.25;;;23.20;52.40;;;;;;5040171;28;20041;-70
2022/10/09 12:34:59;;;;;;;7.32;2.70;;;21.90;54.60;;;;;;5043140;28;20414;-70
2022/10/09 12:37:34;;;;;;;10.90;3.50;;;20.60;57.30;;;;;;5042401;28;20045;-69
2022/10/09 12:40:14;;;;;;;7.55;3.40;;;19.40;59.10;;;;;;5040042;28;20738;-70
2022/10/09 12:42:43;;;;;;;8.93;3.25;;;18.70;61.80;;;;;;5043602;28;20061;-69
2022/10/09 12:45:26;;;;;;;10.60;3.35;;;18.30;63.00;;;;;;5043461;28;20395;-70
2022/10/09 12:47:53;;;;;;;10.27;3.08;;;18.50;63.30;;;;;;5043696;28;20051;-69
2022/10/09 12:50:25;;;;;;;7.32;2.50;;;18.80;61.80;;;;;;5038616;28;20137;-70
2022/10/09 12:52:54;;;;;;;8.02;2.78;;;19.50;61.60;;;;;;5024562;28;20072;-70
2022/10/09 12:55:27;;;;;;;8.02;2.65;;;20.50;60.30;;;;;;5041696;28;20055;-70
2022/10/09 12:57:57;;;;;;;7.68;2.92;;;21.10;57.80;;;;;;5043185;28;20091;-70
2022/10/09 13:00:23;;;;;;;10.77;3.25;;;21.20;57.40;;;;;;5043021;28;20111;-69
2022/10/09 13:02:48;;;;;;;10.57;3.67;;;21.20;56.80;;;;;;5040825;28;20381;-69
2022/10/09 13:05:17;;;;;;;9.63;3.58;;;21.30;56.90;;;;;;5040717;28;20041;-69
2022/10/09 13:07:50;;;;;;;9.38;2.60;;;21.00;57.20;;;;;;5040381;28;20052;-69
2022/10/09 13:10:24;;;;;;;10.98;3.17;;;20.40;57.90;;;;;;5043473;28;20124;-69
2022/10/09 13:12:56;;;;;;;7.60;2.67;;;19.70;58.90;;;;;;5022010;28;20049;-69